sensor_id;sensor_type;location;lat;lon;timestamp;temperature;humidity
9437;DHT22;4757;59.334;18.034;2023-05-07T00:01:43;3.60;99.90
9437;DHT22;4757;59.334;18.034;2023-05-07T00:04:10;3.60;99.90
9437;DHT22;4757;59.334;18.034;2023-05-07T00:06:37;3.70;99.90
9437;DHT22;4757;59.334;18.034;2023-05-07T00:09:05;3.60;99.90
9437;DHT22;4757;59.334;18.034;2023-05-07T00:11:33;3.50;99.90
9437;DHT22;4757;59.334;18.034;2023-05-07T00:14:02;3.50;99.90
9437;DHT22;4757;59.334;18.034;2023-05-07T00:16:29;3.50;99.90
9437;DHT22;4757;59.334;18.034;2023-05-07T00:18:56;3.60;99.90
9437;DHT22;4757;59.334;18.034;2023-05-07T00:21:24;3.50;99.90
9437;DHT22;4757;59.334;18.034;2023-05-07T00:23:54;3.50;99.90
9437;DHT22;4757;59.334;18.034;2023-05-07T00:26:21;3.40;99.90
9437;DHT22;4757;59.334;18.034;2023-05-07T00:28:48;3.50;99.90
9437;DHT22;4757;59.334;18.034;2023-05-07T00:31:15;3.40;99.90
9437;DHT22;4757;59.334;18.034;2023-05-07T00:33:42;3.50;99.90
9437;DHT22;4757;59.334;18.034;2023-05-07T00:36:09;3.50;99.90
9437;DHT22;4757;59.334;18.034;2023-05-07T00:38:36;3.40;99.90
9437;DHT22;4757;59.334;18.034;2023-05-07T00:41:03;3.40;99.90
9437;DHT22;4757;59.334;18.034;2023-05-07T00:43:30;3.40;99.90
9437;DHT22;4757;59.334;18.034;2023-05-07T00:45:58;3.40;99.90
9437;DHT22;4757;59.334;18.034;2023-05-07T00:48:26;3.40;99.90
9437;DHT22;4757;59.334;18.034;2023-05-07T00:50:53;3.30;99.90
9437;DHT22;4757;59.334;18.034;2023-05-07T00:53:20;3.30;99.90
9437;DHT22;4757;59.334;18.034;2023-05-07T00:55:48;3.20;99.90
9437;DHT22;4757;59.334;18.034;2023-05-07T00:58:16;3.20;99.90
9437;DHT22;4757;59.334;18.034;2023-05-07T01:00:43;3.20;99.90
9437;DHT22;4757;59.334;18.034;2023-05-07T01:03:10;3.10;99.90
9437;DHT22;4757;59.334;18.034;2023-05-07T01:05:37;3.10;99.90
9437;DHT22;4757;59.334;18.034;2023-05-07T01:08:05;3.00;99.90
9437;DHT22;4757;59.334;18.034;2023-05-07T01:10:32;3.10;99.90
9437;DHT22;4757;59.334;18.034;2023-05-07T01:12:59;3.00;99.90
9437;DHT22;4757;59.334;18.034;2023-05-07T01:15:27;3.00;99.90
9437;DHT22;4757;59.334;18.034;2023-05-07T01:17:56;3.00;99.90
9437;DHT22;4757;59.334;18.034;2023-05-07T01:20:23;3.00;99.90
9437;DHT22;4757;59.334;18.034;2023-05-07T01:22:51;2.90;99.90
9437;DHT22;4757;59.334;18.034;2023-05-07T01:25:18;3.00;99.90
9437;DHT22;4757;59.334;18.034;2023-05-07T01:27:46;2.80;99.90
9437;DHT22;4757;59.334;18.034;2023-05-07T01:30:13;2.90;99.90
9437;DHT22;4757;59.334;18.034;2023-05-07T01:33:00;2.90;99.90
9437;DHT22;4757;59.334;18.034;2023-05-07T01:35:32;2.90;99.90
9437;DHT22;4757;59.334;18.034;2023-05-07T01:38:01;2.80;99.90
9437;DHT22;4757;59.334;18.034;2023-05-07T01:40:31;2.80;99.90
9437;DHT22;4757;59.334;18.034;2023-05-07T01:42:58;2.80;99.90
9437;DHT22;4757;59.334;18.034;2023-05-07T01:45:25;2.80;99.90
9437;DHT22;4757;59.334;18.034;2023-05-07T01:47:53;2.80;99.90
9437;DHT22;4757;59.334;18.034;2023-05-07T01:50:20;2.90;99.90
9437;DHT22;4757;59.334;18.034;2023-05-07T01:52:50;2.90;99.90
9437;DHT22;4757;59.334;18.034;2023-05-07T01:55:18;2.80;99.90
9437;DHT22;4757;59.334;18.034;2023-05-07T01:57:45;2.80;99.90
9437;DHT22;4757;59.334;18.034;2023-05-07T02:00:12;2.80;99.90
9437;DHT22;4757;59.334;18.034;2023-05-07T02:02:39;2.70;99.90
9437;DHT22;4757;59.334;18.034;2023-05-07T02:05:07;2.70;99.90
9437;DHT22;4757;59.334;18.034;2023-05-07T02:07:34;2.70;99.90
9437;DHT22;4757;59.334;18.034;2023-05-07T02:10:01;2.70;99.90
9437;DHT22;4757;59.334;18.034;2023-05-07T02:12:28;2.70;99.90
9437;DHT22;4757;59.334;18.034;2023-05-07T02:14:55;2.70;99.90
9437;DHT22;4757;59.334;18.034;2023-05-07T02:17:22;2.60;99.90
9437;DHT22;4757;59.334;18.034;2023-05-07T02:19:48;2.60;99.90
9437;DHT22;4757;59.334;18.034;2023-05-07T02:22:15;2.60;99.90
9437;DHT22;4757;59.334;18.034;2023-05-07T02:24:42;2.70;99.90
9437;DHT22;4757;59.334;18.034;2023-05-07T02:27:10;2.70;99.90
9437;DHT22;4757;59.334;18.034;2023-05-07T02:29:37;2.70;99.90
9437;DHT22;4757;59.334;18.034;2023-05-07T02:32:04;2.60;99.90
9437;DHT22;4757;59.334;18.034;2023-05-07T02:34:31;2.60;99.90
9437;DHT22;4757;59.334;18.034;2023-05-07T02:36:58;2.60;99.90
9437;DHT22;4757;59.334;18.034;2023-05-07T02:39:25;2.50;99.90
9437;DHT22;4757;59.334;18.034;2023-05-07T02:41:52;2.50;99.90
9437;DHT22;4757;59.334;18.034;2023-05-07T02:44:19;2.50;99.90
9437;DHT22;4757;59.334;18.034;2023-05-07T02:46:46;2.50;99.90
9437;DHT22;4757;59.334;18.034;2023-05-07T02:49:13;2.50;99.90
9437;DHT22;4757;59.334;18.034;2023-05-07T02:51:40;2.50;99.90
9437;DHT22;4757;59.334;18.034;2023-05-07T02:54:07;2.50;99.90
9437;DHT22;4757;59.334;18.034;2023-05-07T02:56:34;2.50;99.90
9437;DHT22;4757;59.334;18.034;2023-05-07T02:59:01;2.50;99.90
9437;DHT22;4757;59.334;18.034;2023-05-07T03:01:28;2.50;99.90
9437;DHT22;4757;59.334;18.034;2023-05-07T03:03:55;2.50;99.90
9437;DHT22;4757;59.334;18.034;2023-05-07T03:06:22;2.60;99.90
9437;DHT22;4757;59.334;18.034;2023-05-07T03:08:50;2.50;99.90
9437;DHT22;4757;59.334;18.034;2023-05-07T03:11:16;2.60;99.90
9437;DHT22;4757;59.334;18.034;2023-05-07T03:13:43;2.50;99.90
9437;DHT22;4757;59.334;18.034;2023-05-07T03:16:11;2.60;99.90
9437;DHT22;4757;59.334;18.034;2023-05-07T03:18:38;2.60;99.90
9437;DHT22;4757;59.334;18.034;2023-05-07T03:21:05;2.60;99.90
9437;DHT22;4757;59.334;18.034;2023-05-07T03:23:32;2.60;99.90
9437;DHT22;4757;59.334;18.034;2023-05-07T03:25:59;2.60;99.90
9437;DHT22;4757;59.334;18.034;2023-05-07T03:28:26;2.70;99.90
9437;DHT22;4757;59.334;18.034;2023-05-07T03:30:53;2.70;99.90
9437;DHT22;4757;59.334;18.034;2023-05-07T03:33:20;2.90;99.90
9437;DHT22;4757;59.334;18.034;2023-05-07T03:35:47;2.90;99.90
9437;DHT22;4757;59.334;18.034;2023-05-07T03:38:14;2.90;99.90
9437;DHT22;4757;59.334;18.034;2023-05-07T03:40:41;2.90;99.90
9437;DHT22;4757;59.334;18.034;2023-05-07T03:43:08;2.90;99.90
9437;DHT22;4757;59.334;18.034;2023-05-07T03:45:35;2.90;99.90
9437;DHT22;4757;59.334;18.034;2023-05-07T03:48:02;3.00;99.90
9437;DHT22;4757;59.334;18.034;2023-05-07T03:50:29;3.10;99.90
9437;DHT22;4757;59.334;18.034;2023-05-07T03:52:56;3.10;99.90
9437;DHT22;4757;59.334;18.034;2023-05-07T03:55:23;3.10;99.90
9437;DHT22;4757;59.334;18.034;2023-05-07T03:57:50;3.30;99.90
9437;DHT22;4757;59.334;18.034;2023-05-07T04:00:18;3.30;99.90
9437;DHT22;4757;59.334;18.034;2023-05-07T04:02:46;3.30;99.90
9437;DHT22;4757;59.334;18.034;2023-05-07T04:05:14;3.30;99.90
9437;DHT22;4757;59.334;18.034;2023-05-07T04:07:42;3.30;99.90
9437;DHT22;4757;59.334;18.034;2023-05-07T04:10:09;3.40;99.90
9437;DHT22;4757;59.334;18.034;2023-05-07T04:12:37;3.40;99.90
9437;DHT22;4757;59.334;18.034;2023-05-07T04:15:04;3.40;99.90
9437;DHT22;4757;59.334;18.034;2023-05-07T04:17:31;3.50;99.90
9437;DHT22;4757;59.334;18.034;2023-05-07T04:19:58;3.60;99.90
9437;DHT22;4757;59.334;18.034;2023-05-07T04:22:25;3.60;99.90
9437;DHT22;4757;59.334;18.034;2023-05-07T04:24:52;3.70;99.90
9437;DHT22;4757;59.334;18.034;2023-05-07T04:27:19;3.60;99.90
9437;DHT22;4757;59.334;18.034;2023-05-07T04:29:47;3.70;99.90
9437;DHT22;4757;59.334;18.034;2023-05-07T04:32:14;3.70;99.90
9437;DHT22;4757;59.334;18.034;2023-05-07T04:34:41;3.80;99.90
9437;DHT22;4757;59.334;18.034;2023-05-07T04:37:09;3.90;99.90
9437;DHT22;4757;59.334;18.034;2023-05-07T04:39:36;4.00;99.90
9437;DHT22;4757;59.334;18.034;2023-05-07T04:42:03;4.00;99.90
9437;DHT22;4757;59.334;18.034;2023-05-07T04:44:30;4.10;99.90
9437;DHT22;4757;59.334;18.034;2023-05-07T04:46:57;4.20;99.90
9437;DHT22;4757;59.334;18.034;2023-05-07T04:49:24;4.20;99.90
9437;DHT22;4757;59.334;18.034;2023-05-07T04:51:51;4.20;99.90
9437;DHT22;4757;59.334;18.034;2023-05-07T04:54:18;4.30;99.90
9437;DHT22;4757;59.334;18.034;2023-05-07T04:56:45;4.30;99.90
9437;DHT22;4757;59.334;18.034;2023-05-07T04:59:12;4.40;99.90
9437;DHT22;4757;59.334;18.034;2023-05-07T05:01:39;4.40;99.90
9437;DHT22;4757;59.334;18.034;2023-05-07T05:04:07;4.50;99.90
9437;DHT22;4757;59.334;18.034;2023-05-07T05:06:34;4.50;99.90
9437;DHT22;4757;59.334;18.034;2023-05-07T05:09:01;4.60;99.90
9437;DHT22;4757;59.334;18.034;2023-05-07T05:11:28;4.70;99.90
9437;DHT22;4757;59.334;18.034;2023-05-07T05:13:55;4.80;99.90
9437;DHT22;4757;59.334;18.034;2023-05-07T05:16:22;4.90;99.90
9437;DHT22;4757;59.334;18.034;2023-05-07T05:18:49;5.00;99.90
9437;DHT22;4757;59.334;18.034;2023-05-07T05:21:18;5.00;99.90
9437;DHT22;4757;59.334;18.034;2023-05-07T05:23:45;5.10;99.90
9437;DHT22;4757;59.334;18.034;2023-05-07T05:26:12;4.90;99.90
9437;DHT22;4757;59.334;18.034;2023-05-07T05:28:39;5.10;99.90
9437;DHT22;4757;59.334;18.034;2023-05-07T05:31:06;5.20;99.90
9437;DHT22;4757;59.334;18.034;2023-05-07T05:33:33;5.30;99.90
9437;DHT22;4757;59.334;18.034;2023-05-07T05:36:00;5.30;99.90
9437;DHT22;4757;59.334;18.034;2023-05-07T05:38:27;5.40;99.90
9437;DHT22;4757;59.334;18.034;2023-05-07T05:40:54;5.30;99.90
9437;DHT22;4757;59.334;18.034;2023-05-07T05:43:22;5.40;99.90
9437;DHT22;4757;59.334;18.034;2023-05-07T05:45:49;5.20;99.90
9437;DHT22;4757;59.334;18.034;2023-05-07T05:48:16;5.50;99.90
9437;DHT22;4757;59.334;18.034;2023-05-07T05:50:43;5.50;99.90
9437;DHT22;4757;59.334;18.034;2023-05-07T05:53:10;5.80;99.90
9437;DHT22;4757;59.334;18.034;2023-05-07T05:55:37;5.90;99.90
9437;DHT22;4757;59.334;18.034;2023-05-07T05:58:04;6.00;99.90
9437;DHT22;4757;59.334;18.034;2023-05-07T06:00:31;6.00;99.90
9437;DHT22;4757;59.334;18.034;2023-05-07T06:02:58;6.20;99.90
9437;DHT22;4757;59.334;18.034;2023-05-07T06:05:26;6.30;99.90
9437;DHT22;4757;59.334;18.034;2023-05-07T06:07:53;6.30;99.90
9437;DHT22;4757;59.334;18.034;2023-05-07T06:10:20;6.40;99.90
9437;DHT22;4757;59.334;18.034;2023-05-07T06:12:47;6.50;99.90
9437;DHT22;4757;59.334;18.034;2023-05-07T06:15:15;6.60;99.90
9437;DHT22;4757;59.334;18.034;2023-05-07T06:17:42;6.70;99.90
9437;DHT22;4757;59.334;18.034;2023-05-07T06:20:09;6.50;99.90
9437;DHT22;4757;59.334;18.034;2023-05-07T06:22:36;6.50;99.90
9437;DHT22;4757;59.334;18.034;2023-05-07T06:25:04;6.60;99.90
9437;DHT22;4757;59.334;18.034;2023-05-07T06:27:31;6.80;99.90
9437;DHT22;4757;59.334;18.034;2023-05-07T06:29:58;6.70;99.90
9437;DHT22;4757;59.334;18.034;2023-05-07T06:32:25;6.80;99.90
9437;DHT22;4757;59.334;18.034;2023-05-07T06:34:52;6.90;99.90
9437;DHT22;4757;59.334;18.034;2023-05-07T06:37:19;7.30;99.90
9437;DHT22;4757;59.334;18.034;2023-05-07T06:39:47;8.20;99.90
9437;DHT22;4757;59.334;18.034;2023-05-07T06:42:14;8.80;99.90
9437;DHT22;4757;59.334;18.034;2023-05-07T06:44:41;9.40;99.90
9437;DHT22;4757;59.334;18.034;2023-05-07T06:47:08;10.20;99.90
9437;DHT22;4757;59.334;18.034;2023-05-07T06:49:35;10.90;99.90
9437;DHT22;4757;59.334;18.034;2023-05-07T06:52:02;11.50;99.90
9437;DHT22;4757;59.334;18.034;2023-05-07T06:54:29;11.30;99.90
9437;DHT22;4757;59.334;18.034;2023-05-07T06:56:56;9.60;99.90
9437;DHT22;4757;59.334;18.034;2023-05-07T06:59:23;9.80;99.90
9437;DHT22;4757;59.334;18.034;2023-05-07T07:01:50;9.70;99.90
9437;DHT22;4757;59.334;18.034;2023-05-07T07:04:17;10.20;99.90
9437;DHT22;4757;59.334;18.034;2023-05-07T07:06:45;10.40;99.90
9437;DHT22;4757;59.334;18.034;2023-05-07T07:09:12;10.50;99.90
9437;DHT22;4757;59.334;18.034;2023-05-07T07:11:39;9.60;99.90
9437;DHT22;4757;59.334;18.034;2023-05-07T07:14:06;9.40;99.90
9437;DHT22;4757;59.334;18.034;2023-05-07T07:16:34;9.50;99.90
9437;DHT22;4757;59.334;18.034;2023-05-07T07:19:01;9.70;99.90
9437;DHT22;4757;59.334;18.034;2023-05-07T07:21:28;9.70;99.90
9437;DHT22;4757;59.334;18.034;2023-05-07T07:23:55;9.90;99.90
9437;DHT22;4757;59.334;18.034;2023-05-07T07:26:22;10.10;99.90
9437;DHT22;4757;59.334;18.034;2023-05-07T07:28:49;10.10;99.90
9437;DHT22;4757;59.334;18.034;2023-05-07T07:31:16;10.00;99.90
9437;DHT22;4757;59.334;18.034;2023-05-07T07:33:43;10.30;99.90
9437;DHT22;4757;59.334;18.034;2023-05-07T07:36:10;10.50;99.90
9437;DHT22;4757;59.334;18.034;2023-05-07T07:38:37;11.00;99.90
9437;DHT22;4757;59.334;18.034;2023-05-07T07:41:04;10.40;99.90
9437;DHT22;4757;59.334;18.034;2023-05-07T07:43:31;10.00;99.90
9437;DHT22;4757;59.334;18.034;2023-05-07T07:45:58;10.80;99.90
9437;DHT22;4757;59.334;18.034;2023-05-07T07:48:25;11.70;99.70
9437;DHT22;4757;59.334;18.034;2023-05-07T07:50:52;11.00;99.90
9437;DHT22;4757;59.334;18.034;2023-05-07T07:53:19;10.90;99.90
9437;DHT22;4757;59.334;18.034;2023-05-07T07:55:46;12.10;99.60
9437;DHT22;4757;59.334;18.034;2023-05-07T07:58:13;13.20;97.80
9437;DHT22;4757;59.334;18.034;2023-05-07T08:00:40;13.10;97.60
9437;DHT22;4757;59.334;18.034;2023-05-07T08:03:09;13.00;97.50
9437;DHT22;4757;59.334;18.034;2023-05-07T08:05:37;13.60;97.40
9437;DHT22;4757;59.334;18.034;2023-05-07T08:08:05;13.80;96.70
9437;DHT22;4757;59.334;18.034;2023-05-07T08:10:33;12.40;96.70
9437;DHT22;4757;59.334;18.034;2023-05-07T08:13:05;11.30;97.60
9437;DHT22;4757;59.334;18.034;2023-05-07T08:15:33;10.70;98.20
9437;DHT22;4757;59.334;18.034;2023-05-07T08:18:02;11.20;98.00
9437;DHT22;4757;59.334;18.034;2023-05-07T08:20:29;12.30;97.00
9437;DHT22;4757;59.334;18.034;2023-05-07T08:22:56;11.30;97.90
9437;DHT22;4757;59.334;18.034;2023-05-07T08:25:23;11.90;97.50
9437;DHT22;4757;59.334;18.034;2023-05-07T08:27:50;10.20;98.40
9437;DHT22;4757;59.334;18.034;2023-05-07T08:30:17;10.30;99.10
9437;DHT22;4757;59.334;18.034;2023-05-07T08:32:44;10.90;98.50
9437;DHT22;4757;59.334;18.034;2023-05-07T08:35:11;11.30;98.10
9437;DHT22;4757;59.334;18.034;2023-05-07T08:37:38;11.80;97.90
9437;DHT22;4757;59.334;18.034;2023-05-07T08:40:06;11.40;98.30
9437;DHT22;4757;59.334;18.034;2023-05-07T08:42:38;12.20;98.00
9437;DHT22;4757;59.334;18.034;2023-05-07T08:45:10;12.00;97.80
9437;DHT22;4757;59.334;18.034;2023-05-07T08:47:43;11.80;97.80
9437;DHT22;4757;59.334;18.034;2023-05-07T08:50:13;12.50;97.50
9437;DHT22;4757;59.334;18.034;2023-05-07T08:52:41;13.90;95.90
9437;DHT22;4757;59.334;18.034;2023-05-07T08:55:09;14.50;95.10
9437;DHT22;4757;59.334;18.034;2023-05-07T08:57:36;14.40;94.50
9437;DHT22;4757;59.334;18.034;2023-05-07T09:00:07;12.50;96.50
9437;DHT22;4757;59.334;18.034;2023-05-07T09:02:37;13.00;96.00
9437;DHT22;4757;59.334;18.034;2023-05-07T09:05:04;11.50;96.50
9437;DHT22;4757;59.334;18.034;2023-05-07T09:07:32;11.30;97.10
9437;DHT22;4757;59.334;18.034;2023-05-07T09:10:04;11.90;96.90
9437;DHT22;4757;59.334;18.034;2023-05-07T09:12:32;12.60;96.00
9437;DHT22;4757;59.334;18.034;2023-05-07T09:14:59;13.50;95.40
9437;DHT22;4757;59.334;18.034;2023-05-07T09:17:26;12.60;95.50
9437;DHT22;4757;59.334;18.034;2023-05-07T09:19:54;13.30;95.50
9437;DHT22;4757;59.334;18.034;2023-05-07T09:22:22;12.70;95.80
9437;DHT22;4757;59.334;18.034;2023-05-07T09:24:51;12.40;96.30
9437;DHT22;4757;59.334;18.034;2023-05-07T09:27:18;12.90;95.80
9437;DHT22;4757;59.334;18.034;2023-05-07T09:29:45;14.50;94.80
9437;DHT22;4757;59.334;18.034;2023-05-07T09:32:12;15.40;94.00
9437;DHT22;4757;59.334;18.034;2023-05-07T09:34:41;15.70;93.70
9437;DHT22;4757;59.334;18.034;2023-05-07T09:37:08;15.80;92.90
9437;DHT22;4757;59.334;18.034;2023-05-07T09:42:07;13.90;94.60
9437;DHT22;4757;59.334;18.034;2023-05-07T09:44:41;13.90;94.90
9437;DHT22;4757;59.334;18.034;2023-05-07T09:47:10;13.30;94.90
9437;DHT22;4757;59.334;18.034;2023-05-07T09:49:42;14.00;95.00
9437;DHT22;4757;59.334;18.034;2023-05-07T09:52:13;14.70;94.30
9437;DHT22;4757;59.334;18.034;2023-05-07T09:54:41;15.70;93.40
9437;DHT22;4757;59.334;18.034;2023-05-07T09:57:13;15.90;93.00
9437;DHT22;4757;59.334;18.034;2023-05-07T09:59:43;13.30;94.60
9437;DHT22;4757;59.334;18.034;2023-05-07T10:02:11;13.40;95.00
9437;DHT22;4757;59.334;18.034;2023-05-07T10:04:38;13.30;95.30
9437;DHT22;4757;59.334;18.034;2023-05-07T10:07:07;13.70;94.80
9437;DHT22;4757;59.334;18.034;2023-05-07T10:09:36;14.20;94.60
9437;DHT22;4757;59.334;18.034;2023-05-07T10:12:06;14.10;94.30
9437;DHT22;4757;59.334;18.034;2023-05-07T10:14:34;13.00;95.40
9437;DHT22;4757;59.334;18.034;2023-05-07T10:17:02;13.30;95.00
9437;DHT22;4757;59.334;18.034;2023-05-07T10:19:32;13.50;95.10
9437;DHT22;4757;59.334;18.034;2023-05-07T10:22:04;13.80;94.80
9437;DHT22;4757;59.334;18.034;2023-05-07T10:24:33;13.30;94.80
9437;DHT22;4757;59.334;18.034;2023-05-07T10:27:02;13.70;95.20
9437;DHT22;4757;59.334;18.034;2023-05-07T10:29:50;13.80;94.70
9437;DHT22;4757;59.334;18.034;2023-05-07T10:32:43;13.90;94.80
9437;DHT22;4757;59.334;18.034;2023-05-07T10:35:19;13.80;95.00
9437;DHT22;4757;59.334;18.034;2023-05-07T10:37:47;13.60;95.00
9437;DHT22;4757;59.334;18.034;2023-05-07T10:40:15;13.30;94.60
9437;DHT22;4757;59.334;18.034;2023-05-07T10:42:58;12.90;95.00
9437;DHT22;4757;59.334;18.034;2023-05-07T10:45:28;13.50;95.00
9437;DHT22;4757;59.334;18.034;2023-05-07T10:51:19;13.90;94.30
9437;DHT22;4757;59.334;18.034;2023-05-07T10:56:40;13.60;94.80
9437;DHT22;4757;59.334;18.034;2023-05-07T11:01:55;13.80;94.50
9437;DHT22;4757;59.334;18.034;2023-05-07T11:04:25;14.70;93.80
9437;DHT22;4757;59.334;18.034;2023-05-07T11:15:07;14.30;94.50
9437;DHT22;4757;59.334;18.034;2023-05-07T11:17:53;14.10;95.10
9437;DHT22;4757;59.334;18.034;2023-05-07T11:20:20;14.20;95.20
9437;DHT22;4757;59.334;18.034;2023-05-07T11:22:48;14.40;95.50
9437;DHT22;4757;59.334;18.034;2023-05-07T11:25:18;13.80;95.80
9437;DHT22;4757;59.334;18.034;2023-05-07T11:27:47;14.10;95.70
9437;DHT22;4757;59.334;18.034;2023-05-07T11:30:17;13.70;96.00
9437;DHT22;4757;59.334;18.034;2023-05-07T11:32:47;13.90;95.90
9437;DHT22;4757;59.334;18.034;2023-05-07T11:35:15;13.40;96.50
9437;DHT22;4757;59.334;18.034;2023-05-07T11:37:43;13.70;96.20
9437;DHT22;4757;59.334;18.034;2023-05-07T11:40:11;14.10;95.60
9437;DHT22;4757;59.334;18.034;2023-05-07T11:42:41;14.00;95.90
9437;DHT22;4757;59.334;18.034;2023-05-07T11:45:14;13.90;96.10
9437;DHT22;4757;59.334;18.034;2023-05-07T11:47:49;14.10;95.70
9437;DHT22;4757;59.334;18.034;2023-05-07T11:50:16;13.70;95.60
9437;DHT22;4757;59.334;18.034;2023-05-07T11:52:50;13.30;96.50
9437;DHT22;4757;59.334;18.034;2023-05-07T11:55:18;14.30;96.00
9437;DHT22;4757;59.334;18.034;2023-05-07T11:57:46;13.60;95.90
9437;DHT22;4757;59.334;18.034;2023-05-07T12:00:16;14.40;95.80
9437;DHT22;4757;59.334;18.034;2023-05-07T12:02:45;13.90;95.20
9437;DHT22;4757;59.334;18.034;2023-05-07T12:05:12;13.40;95.90
9437;DHT22;4757;59.334;18.034;2023-05-07T12:07:39;13.80;95.70
9437;DHT22;4757;59.334;18.034;2023-05-07T12:10:07;13.80;95.70
9437;DHT22;4757;59.334;18.034;2023-05-07T12:12:41;14.20;95.50
9437;DHT22;4757;59.334;18.034;2023-05-07T12:15:13;13.10;95.70
9437;DHT22;4757;59.334;18.034;2023-05-07T12:17:44;13.90;95.70
9437;DHT22;4757;59.334;18.034;2023-05-07T12:20:11;14.10;95.40
9437;DHT22;4757;59.334;18.034;2023-05-07T12:22:39;14.50;95.10
9437;DHT22;4757;59.334;18.034;2023-05-07T12:25:06;14.90;95.10
9437;DHT22;4757;59.334;18.034;2023-05-07T12:27:37;14.80;95.30
9437;DHT22;4757;59.334;18.034;2023-05-07T12:30:05;14.20;95.30
9437;DHT22;4757;59.334;18.034;2023-05-07T12:32:32;14.60;95.10
9437;DHT22;4757;59.334;18.034;2023-05-07T12:35:05;14.90;94.70
9437;DHT22;4757;59.334;18.034;2023-05-07T12:37:35;15.70;94.30
9437;DHT22;4757;59.334;18.034;2023-05-07T12:40:10;15.00;94.40
9437;DHT22;4757;59.334;18.034;2023-05-07T12:42:40;14.30;95.10
9437;DHT22;4757;59.334;18.034;2023-05-07T12:45:15;14.00;94.80
9437;DHT22;4757;59.334;18.034;2023-05-07T12:47:44;14.00;95.30
9437;DHT22;4757;59.334;18.034;2023-05-07T12:50:13;14.70;94.30
9437;DHT22;4757;59.334;18.034;2023-05-07T12:52:41;14.10;94.40
9437;DHT22;4757;59.334;18.034;2023-05-07T12:55:12;14.00;94.60
9437;DHT22;4757;59.334;18.034;2023-05-07T12:57:47;14.50;94.70
9437;DHT22;4757;59.334;18.034;2023-05-07T13:00:15;14.40;94.30
9437;DHT22;4757;59.334;18.034;2023-05-07T13:02:43;14.50;94.30
9437;DHT22;4757;59.334;18.034;2023-05-07T13:05:13;14.10;94.50
9437;DHT22;4757;59.334;18.034;2023-05-07T13:07:40;13.70;94.70
9437;DHT22;4757;59.334;18.034;2023-05-07T13:10:10;14.00;94.30
9437;DHT22;4757;59.334;18.034;2023-05-07T13:12:38;14.80;93.40
9437;DHT22;4757;59.334;18.034;2023-05-07T13:15:05;15.30;93.30
9437;DHT22;4757;59.334;18.034;2023-05-07T13:17:32;16.00;93.00
9437;DHT22;4757;59.334;18.034;2023-05-07T13:20:00;16.10;93.10
9437;DHT22;4757;59.334;18.034;2023-05-07T13:22:27;15.10;93.20
9437;DHT22;4757;59.334;18.034;2023-05-07T13:24:54;14.70;93.70
9437;DHT22;4757;59.334;18.034;2023-05-07T13:27:21;14.30;94.10
9437;DHT22;4757;59.334;18.034;2023-05-07T13:29:48;13.90;94.20
9437;DHT22;4757;59.334;18.034;2023-05-07T13:32:15;14.50;93.80
9437;DHT22;4757;59.334;18.034;2023-05-07T13:34:42;15.40;93.10
9437;DHT22;4757;59.334;18.034;2023-05-07T13:37:09;15.10;93.00
9437;DHT22;4757;59.334;18.034;2023-05-07T13:39:38;15.60;92.80
9437;DHT22;4757;59.334;18.034;2023-05-07T13:42:05;14.30;93.40
9437;DHT22;4757;59.334;18.034;2023-05-07T13:44:32;14.20;93.70
9437;DHT22;4757;59.334;18.034;2023-05-07T13:46:59;14.10;93.60
9437;DHT22;4757;59.334;18.034;2023-05-07T13:49:26;14.10;93.50
9437;DHT22;4757;59.334;18.034;2023-05-07T13:51:52;14.00;93.90
9437;DHT22;4757;59.334;18.034;2023-05-07T13:54:19;14.10;93.50
9437;DHT22;4757;59.334;18.034;2023-05-07T13:56:46;13.90;93.70
9437;DHT22;4757;59.334;18.034;2023-05-07T13:59:14;13.50;94.10
9437;DHT22;4757;59.334;18.034;2023-05-07T14:01:41;13.70;93.80
9437;DHT22;4757;59.334;18.034;2023-05-07T14:04:08;13.70;94.00
9437;DHT22;4757;59.334;18.034;2023-05-07T14:06:35;13.00;94.30
9437;DHT22;4757;59.334;18.034;2023-05-07T14:09:04;13.70;94.20
9437;DHT22;4757;59.334;18.034;2023-05-07T14:11:31;14.30;94.00
9437;DHT22;4757;59.334;18.034;2023-05-07T14:14:01;13.50;94.10
9437;DHT22;4757;59.334;18.034;2023-05-07T14:16:28;13.50;94.00
9437;DHT22;4757;59.334;18.034;2023-05-07T14:18:55;13.10;94.50
9437;DHT22;4757;59.334;18.034;2023-05-07T14:21:24;13.80;94.20
9437;DHT22;4757;59.334;18.034;2023-05-07T14:23:51;13.50;93.90
9437;DHT22;4757;59.334;18.034;2023-05-07T14:26:18;14.00;93.80
9437;DHT22;4757;59.334;18.034;2023-05-07T14:28:45;14.10;94.00
9437;DHT22;4757;59.334;18.034;2023-05-07T14:31:13;13.20;94.20
9437;DHT22;4757;59.334;18.034;2023-05-07T14:33:40;12.80;94.80
9437;DHT22;4757;59.334;18.034;2023-05-07T14:36:09;13.40;94.20
9437;DHT22;4757;59.334;18.034;2023-05-07T14:38:36;13.40;94.20
9437;DHT22;4757;59.334;18.034;2023-05-07T14:41:03;13.10;94.70
9437;DHT22;4757;59.334;18.034;2023-05-07T14:43:30;12.80;94.80
9437;DHT22;4757;59.334;18.034;2023-05-07T14:45:57;13.20;94.50
9437;DHT22;4757;59.334;18.034;2023-05-07T14:48:24;13.70;94.60
9437;DHT22;4757;59.334;18.034;2023-05-07T14:50:51;13.70;94.30
9437;DHT22;4757;59.334;18.034;2023-05-07T14:53:18;13.40;94.50
9437;DHT22;4757;59.334;18.034;2023-05-07T14:55:46;13.20;94.50
9437;DHT22;4757;59.334;18.034;2023-05-07T14:58:14;13.30;94.50
9437;DHT22;4757;59.334;18.034;2023-05-07T15:00:41;13.70;94.30
9437;DHT22;4757;59.334;18.034;2023-05-07T15:03:09;13.30;94.40
9437;DHT22;4757;59.334;18.034;2023-05-07T15:05:37;13.70;94.30
9437;DHT22;4757;59.334;18.034;2023-05-07T15:08:04;13.90;94.00
9437;DHT22;4757;59.334;18.034;2023-05-07T15:10:35;14.40;93.70
9437;DHT22;4757;59.334;18.034;2023-05-07T15:13:11;14.50;93.60
9437;DHT22;4757;59.334;18.034;2023-05-07T15:15:42;14.30;93.70
9437;DHT22;4757;59.334;18.034;2023-05-07T15:18:12;14.30;93.40
9437;DHT22;4757;59.334;18.034;2023-05-07T15:20:40;12.80;94.40
9437;DHT22;4757;59.334;18.034;2023-05-07T15:23:08;12.80;94.90
9437;DHT22;4757;59.334;18.034;2023-05-07T15:25:36;12.80;94.20
9437;DHT22;4757;59.334;18.034;2023-05-07T15:28:03;12.80;94.30
9437;DHT22;4757;59.334;18.034;2023-05-07T15:30:30;12.60;94.40
9437;DHT22;4757;59.334;18.034;2023-05-07T15:32:57;12.80;94.30
9437;DHT22;4757;59.334;18.034;2023-05-07T15:35:25;12.70;94.40
9437;DHT22;4757;59.334;18.034;2023-05-07T15:37:52;12.10;95.00
9437;DHT22;4757;59.334;18.034;2023-05-07T15:40:19;12.70;94.60
9437;DHT22;4757;59.334;18.034;2023-05-07T15:42:46;12.60;94.40
9437;DHT22;4757;59.334;18.034;2023-05-07T15:45:14;12.30;94.20
9437;DHT22;4757;59.334;18.034;2023-05-07T15:47:41;12.10;94.60
9437;DHT22;4757;59.334;18.034;2023-05-07T15:50:08;11.80;94.90
9437;DHT22;4757;59.334;18.034;2023-05-07T15:52:36;11.90;95.20
9437;DHT22;4757;59.334;18.034;2023-05-07T15:55:03;12.30;94.80
9437;DHT22;4757;59.334;18.034;2023-05-07T15:57:32;11.60;95.00
9437;DHT22;4757;59.334;18.034;2023-05-07T15:59:59;11.50;95.00
9437;DHT22;4757;59.334;18.034;2023-05-07T16:02:26;11.10;95.70
9437;DHT22;4757;59.334;18.034;2023-05-07T16:04:55;11.60;95.30
9437;DHT22;4757;59.334;18.034;2023-05-07T16:07:22;11.90;95.20
9437;DHT22;4757;59.334;18.034;2023-05-07T16:09:49;11.70;95.30
9437;DHT22;4757;59.334;18.034;2023-05-07T16:12:16;11.60;95.40
9437;DHT22;4757;59.334;18.034;2023-05-07T16:14:44;11.80;95.00
9437;DHT22;4757;59.334;18.034;2023-05-07T16:17:11;12.20;95.00